Time;durP1;ratioP1;P1;durP2;ratioP2;P2;SDS_P1;SDS_P2;PMS_P1;PMS_P2;Temp;Humidity;BMP_temperature;BMP_pressure;BME280_temperature;BME280_humidity;BME280_pressure;Samples;Min_cycle;Max_cycle;Signal;HPM_P1;HPM_P2
2023/05/05 00:01:18;;;;;;;;;;;13.20;99.90;;;;;;5023801;28;19937;-65
2023/05/05 00:03:44;;;;;;;;;;;13.20;99.90;;;;;;5026605;28;19979;-67
2023/05/05 00:06:10;;;;;;;;;;;13.20;99.90;;;;;;5016969;28;20412;-66
2023/05/05 00:08:35;;;;;;;;;;;13.20;99.90;;;;;;5034524;28;19921;-68
2023/05/05 00:11:01;;;;;;;;;;;13.10;99.90;;;;;;5017321;28;20379;-68
2023/05/05 00:13:26;;;;;;;;;;;13.10;99.90;;;;;;5028300;28;19921;-67
2023/05/05 00:15:52;;;;;;;;;;;13.10;99.90;;;;;;5034523;28;20011;-68
2023/05/05 00:18:18;;;;;;;;;;;13.10;99.90;;;;;;5021112;28;19921;-68
2023/05/05 00:20:45;;;;;;;;;;;13.20;99.90;;;;;;5033646;28;20019;-67
2023/05/05 00:23:11;;;;;;;;;;;13.10;99.90;;;;;;5016108;28;19925;-65
2023/05/05 00:25:37;;;;;;;;;;;13.10;99.90;;;;;;5022600;28;19944;-65
2023/05/05 00:28:02;;;;;;;;;;;13.10;99.90;;;;;;5029191;28;19962;-66
2023/05/05 00:30:28;;;;;;;;;;;13.10;99.90;;;;;;5034407;28;19988;-65
2023/05/05 00:32:53;;;;;;;;;;;13.20;99.90;;;;;;5034698;28;19928;-65
2023/05/05 00:35:19;;;;;;;;;;;13.10;99.90;;;;;;5020257;28;20018;-65
2023/05/05 00:37:44;;;;;;;;;;;13.10;99.90;;;;;;5028554;28;19928;-65
2023/05/05 00:40:10;;;;;;;;;;;13.10;99.90;;;;;;5016602;28;20018;-66
2023/05/05 00:42:39;;;;;;;;;;;13.10;99.90;;;;;;5029570;28;19964;-66
2023/05/05 00:45:05;;;;;;;;;;;13.10;99.90;;;;;;5027909;28;19926;-65
2023/05/05 00:47:30;;;;;;;;;;;13.10;99.90;;;;;;5033492;28;19921;-66
2023/05/05 00:49:56;;;;;;;;;;;13.10;99.90;;;;;;5025888;28;19975;-67
2023/05/05 00:52:22;;;;;;;;;;;13.10;99.90;;;;;;5020928;28;20000;-66
2023/05/05 00:54:47;;;;;;;;;;;13.00;99.90;;;;;;5029379;28;20405;-65
2023/05/05 00:57:13;;;;;;;;;;;13.00;99.90;;;;;;5033507;28;19991;-66
2023/05/05 00:59:39;;;;;;;;;;;13.00;99.90;;;;;;5023367;28;19925;-68
2023/05/05 01:02:05;;;;;;;;;;;13.00;99.90;;;;;;5013018;28;19946;-67
2023/05/05 01:04:30;;;;;;;;;;;13.00;99.90;;;;;;5034134;28;20047;-67
2023/05/05 01:07:02;;;;;;;;;;;13.00;99.90;;;;;;5028955;28;19972;-67
2023/05/05 01:09:57;;;;;;;;;;;13.00;99.90;;;;;;5028272;28;19975;-66
2023/05/05 01:12:23;;;;;;;;;;;13.00;99.90;;;;;;5031851;28;19921;-67
2023/05/05 01:14:54;;;;;;;;;;;12.90;99.90;;;;;;5015928;28;19925;-66
2023/05/05 01:17:27;;;;;;;;;;;12.90;99.90;;;;;;5025337;28;19925;-66
2023/05/05 01:20:05;;;;;;;;;;;12.90;99.90;;;;;;5026446;28;20317;-65
2023/05/05 01:22:35;;;;;;;;;;;12.90;99.90;;;;;;5026464;28;20386;-65
2023/05/05 01:25:13;;;;;;;;;;;12.90;99.90;;;;;;5024720;28;20287;-68
2023/05/05 01:27:47;;;;;;;;;;;12.90;99.90;;;;;;5026218;28;19925;-68
2023/05/05 01:30:31;;;;;;;;;;;12.90;99.90;;;;;;5033404;28;19921;-66
2023/05/05 01:32:59;;;;;;;;;;;12.90;99.90;;;;;;5033885;28;19921;-68
2023/05/05 01:35:29;;;;;;;;;;;12.90;99.90;;;;;;5017614;28;19922;-66
2023/05/05 01:38:01;;;;;;;;;;;12.90;99.90;;;;;;5011007;28;19921;-68
2023/05/05 01:40:30;;;;;;;;;;;12.90;99.90;;;;;;5026703;28;19925;-66
2023/05/05 01:42:57;;;;;;;;;;;12.90;99.90;;;;;;5021194;28;19929;-67
2023/05/05 01:45:25;;;;;;;;;;;12.80;99.90;;;;;;5032798;28;20274;-68
2023/05/05 01:47:51;;;;;;;;;;;12.80;99.90;;;;;;5033113;28;20008;-67
2023/05/05 01:50:17;;;;;;;;;;;12.80;99.90;;;;;;5026873;28;19921;-68
2023/05/05 01:52:43;;;;;;;;;;;12.80;99.90;;;;;;5024937;28;19921;-67
2023/05/05 01:55:09;;;;;;;;;;;12.80;99.90;;;;;;5031651;28;19991;-68
2023/05/05 01:57:36;;;;;;;;;;;12.70;99.90;;;;;;5023060;28;19967;-67
2023/05/05 02:00:03;;;;;;;;;;;12.70;99.90;;;;;;5027039;28;19921;-68
2023/05/05 02:02:29;;;;;;;;;;;12.70;99.90;;;;;;5032928;28;19924;-68
2023/05/05 02:04:55;;;;;;;;;;;12.70;99.90;;;;;;5029932;28;19932;-63
2023/05/05 02:07:21;;;;;;;;;;;12.60;99.90;;;;;;5027010;28;19929;-68
2023/05/05 02:09:47;;;;;;;;;;;12.60;99.90;;;;;;5032641;28;20394;-68
2023/05/05 02:12:13;;;;;;;;;;;12.60;99.90;;;;;;5032358;28;19921;-64
2023/05/05 02:14:39;;;;;;;;;;;12.60;99.90;;;;;;5024963;28;19925;-65
2023/05/05 02:17:05;;;;;;;;;;;12.50;99.90;;;;;;5029158;28;19928;-65
2023/05/05 02:19:37;;;;;;;;;;;12.50;99.90;;;;;;5032411;28;19920;-67
2023/05/05 02:22:02;;;;;;;;;;;12.40;99.90;;;;;;5025429;28;19929;-67
2023/05/05 02:24:28;;;;;;;;;;;12.40;99.90;;;;;;5030823;28;19925;-64
2023/05/05 02:26:55;;;;;;;;;;;12.40;99.90;;;;;;5028162;28;19921;-66
2023/05/05 02:29:23;;;;;;;;;;;12.30;99.90;;;;;;5007215;28;20019;-67
2023/05/05 02:31:49;;;;;;;;;;;12.30;99.90;;;;;;5016580;28;19932;-64
2023/05/05 02:34:20;;;;;;;;;;;12.30;99.90;;;;;;5022915;28;20306;-65
2023/05/05 02:36:46;;;;;;;;;;;12.30;99.90;;;;;;5032216;28;19929;-64
2023/05/05 02:39:20;;;;;;;;;;;12.30;99.90;;;;;;5032212;28;20374;-64
2023/05/05 02:41:47;;;;;;;;;;;12.30;99.90;;;;;;5021406;28;19928;-64
2023/05/05 02:44:14;;;;;;;;;;;12.30;99.90;;;;;;5030263;28;20452;-64
2023/05/05 02:46:41;;;;;;;;;;;12.30;99.90;;;;;;5029898;28;20305;-69
2023/05/05 02:49:06;;;;;;;;;;;12.30;99.90;;;;;;5020146;28;20009;-64
2023/05/05 02:51:32;;;;;;;;;;;12.20;99.90;;;;;;5031930;28;20000;-65
2023/05/05 02:53:58;;;;;;;;;;;12.20;99.90;;;;;;5032529;28;20371;-65
2023/05/05 02:56:23;;;;;;;;;;;12.30;99.90;;;;;;5025809;28;20311;-66
2023/05/05 02:59:12;;;;;;;;;;;12.30;99.90;;;;;;5020077;28;19976;-65
2023/05/05 03:01:47;;;;;;;;;;;12.30;99.90;;;;;;4996632;28;19936;-65
2023/05/05 03:04:19;;;;;;;;;;;12.30;99.90;;;;;;5024477;28;19932;-65
2023/05/05 03:06:47;;;;;;;;;;;12.30;99.90;;;;;;5031185;28;19964;-65
2023/05/05 03:09:20;;;;;;;;;;;12.30;99.90;;;;;;5031651;28;19953;-64
2023/05/05 03:11:48;;;;;;;;;;;12.20;99.90;;;;;;5031850;28;19921;-64
2023/05/05 03:14:18;;;;;;;;;;;12.20;99.90;;;;;;5026981;28;19932;-67
2023/05/05 03:16:45;;;;;;;;;;;12.20;99.90;;;;;;5035701;28;19921;-67
2023/05/05 03:19:11;;;;;;;;;;;12.20;99.90;;;;;;5013992;28;19971;-66
2023/05/05 03:21:37;;;;;;;;;;;12.10;99.90;;;;;;5025251;28;20000;-67
2023/05/05 03:24:18;;;;;;;;;;;12.10;99.90;;;;;;5029970;28;20003;-66
2023/05/05 03:26:44;;;;;;;;;;;12.10;99.90;;;;;;5012914;28;19925;-68
2023/05/05 03:29:10;;;;;;;;;;;12.10;99.90;;;;;;5009408;28;20590;-68
2023/05/05 03:31:36;;;;;;;;;;;12.10;99.90;;;;;;5026289;28;19921;-67
2023/05/05 03:34:01;;;;;;;;;;;12.20;99.90;;;;;;5006438;28;20350;-67
2023/05/05 03:36:26;;;;;;;;;;;12.20;99.90;;;;;;5029832;28;19921;-66
2023/05/05 03:38:52;;;;;;;;;;;12.20;99.90;;;;;;5014113;28;19926;-66
2023/05/05 03:41:22;;;;;;;;;;;12.20;99.90;;;;;;5022469;28;19925;-65
2023/05/05 03:43:48;;;;;;;;;;;12.20;99.90;;;;;;5031675;28;19932;-64
2023/05/05 03:46:14;;;;;;;;;;;12.30;99.90;;;;;;5024212;28;19922;-67
2023/05/05 03:48:40;;;;;;;;;;;12.30;99.90;;;;;;5005224;28;19928;-68
2023/05/05 03:51:06;;;;;;;;;;;12.20;99.90;;;;;;5031484;28;19925;-68
2023/05/05 03:53:31;;;;;;;;;;;12.20;99.90;;;;;;5026651;28;19921;-67
2023/05/05 03:55:57;;;;;;;;;;;12.20;99.90;;;;;;5017661;28;19925;-68
2023/05/05 03:58:22;;;;;;;;;;;12.20;99.90;;;;;;5029322;28;19921;-68
2023/05/05 04:00:48;;;;;;;;;;;12.10;99.90;;;;;;5031521;28;19927;-67
2023/05/05 04:03:13;;;;;;;;;;;12.00;99.90;;;;;;5025693;28;19935;-67
2023/05/05 04:05:39;;;;;;;;;;;11.90;99.90;;;;;;5022668;28;19925;-68
2023/05/05 04:08:04;;;;;;;;;;;11.80;99.90;;;;;;5012020;28;19971;-68
2023/05/05 04:10:30;;;;;;;;;;;11.80;99.90;;;;;;5023652;28;19947;-68
2023/05/05 04:12:55;;;;;;;;;;;11.60;99.90;;;;;;5011847;28;20410;-68
2023/05/05 04:15:21;;;;;;;;;;;11.40;99.90;;;;;;5030244;28;19983;-67
2023/05/05 04:17:46;;;;;;;;;;;11.40;99.90;;;;;;5013449;28;19921;-68
2023/05/05 04:20:12;;;;;;;;;;;11.50;99.90;;;;;;5018996;28;20296;-67
2023/05/05 04:22:37;;;;;;;;;;;11.50;99.90;;;;;;5029932;28;20004;-66
2023/05/05 04:25:03;;;;;;;;;;;11.50;99.90;;;;;;5007314;28;20383;-67
2023/05/05 04:27:29;;;;;;;;;;;11.60;99.90;;;;;;5013363;28;19933;-67
2023/05/05 04:29:55;;;;;;;;;;;11.70;99.90;;;;;;5018147;28;19974;-67
2023/05/05 04:32:20;;;;;;;;;;;11.70;99.90;;;;;;5010987;28;19921;-66
2023/05/05 04:34:46;;;;;;;;;;;11.80;99.90;;;;;;5028466;28;19929;-68
2023/05/05 04:37:12;;;;;;;;;;;11.80;99.90;;;;;;5023271;28;19929;-68
2023/05/05 04:39:37;;;;;;;;;;;11.90;99.90;;;;;;5033409;28;20654;-68
2023/05/05 04:42:03;;;;;;;;;;;11.90;99.90;;;;;;5034326;28;20000;-67
2023/05/05 04:44:29;;;;;;;;;;;12.00;99.90;;;;;;5009169;28;19929;-66
2023/05/05 04:46:54;;;;;;;;;;;12.00;99.90;;;;;;5006596;28;19921;-68
2023/05/05 04:49:20;;;;;;;;;;;12.10;99.90;;;;;;5025774;28;19974;-68
2023/05/05 04:51:45;;;;;;;;;;;12.10;99.90;;;;;;5009467;28;20383;-68
2023/05/05 04:54:11;;;;;;;;;;;12.10;99.90;;;;;;5017385;28;19921;-67
2023/05/05 04:56:36;;;;;;;;;;;12.20;99.90;;;;;;5025848;28;19921;-67
2023/05/05 04:59:02;;;;;;;;;;;12.20;99.90;;;;;;5030887;28;19921;-68
2023/05/05 05:01:28;;;;;;;;;;;12.30;99.90;;;;;;5004794;28;19925;-64
2023/05/05 05:03:53;;;;;;;;;;;12.30;99.90;;;;;;5018851;28;20503;-65
2023/05/05 05:06:18;;;;;;;;;;;12.30;99.90;;;;;;5023218;28;19929;-65
2023/05/05 05:08:44;;;;;;;;;;;12.20;99.90;;;;;;5011782;28;19932;-65
2023/05/05 05:11:09;;;;;;;;;;;12.20;99.90;;;;;;5029326;28;19921;-67
2023/05/05 05:13:35;;;;;;;;;;;12.10;99.90;;;;;;5030667;28;19925;-66
2023/05/05 05:16:00;;;;;;;;;;;12.10;99.90;;;;;;5007586;28;20012;-65
2023/05/05 05:18:26;;;;;;;;;;;12.10;99.90;;;;;;5019298;28;19970;-65
2023/05/05 05:20:51;;;;;;;;;;;12.10;99.90;;;;;;5029232;28;19925;-65
2023/05/05 05:23:17;;;;;;;;;;;12.10;99.90;;;;;;5028665;28;20723;-65
2023/05/05 05:25:43;;;;;;;;;;;12.10;99.90;;;;;;5017487;28;19983;-66
2023/05/05 05:28:08;;;;;;;;;;;12.10;99.90;;;;;;5007108;28;20441;-67
2023/05/05 05:30:34;;;;;;;;;;;12.10;99.90;;;;;;5030078;28;19964;-66
2023/05/05 05:33:00;;;;;;;;;;;12.00;99.90;;;;;;5012302;28;19933;-65
2023/05/05 05:35:25;;;;;;;;;;;12.00;99.90;;;;;;5002203;28;19921;-65
2023/05/05 05:37:51;;;;;;;;;;;12.00;99.90;;;;;;5025284;28;20440;-65
2023/05/05 05:40:17;;;;;;;;;;;12.10;99.90;;;;;;5024460;28;19932;-66
2023/05/05 05:42:42;;;;;;;;;;;12.20;99.90;;;;;;5028551;28;19925;-64
2023/05/05 05:45:08;;;;;;;;;;;12.30;99.90;;;;;;5011835;28;19925;-65
2023/05/05 05:47:33;;;;;;;;;;;12.40;99.90;;;;;;5045087;28;19972;-66
2023/05/05 05:49:59;;;;;;;;;;;12.50;99.90;;;;;;5025157;28;19925;-68
2023/05/05 05:52:24;;;;;;;;;;;12.60;99.90;;;;;;5016500;28;19979;-65
2023/05/05 05:54:50;;;;;;;;;;;12.80;99.90;;;;;;5005700;28;20315;-66
2023/05/05 05:57:15;;;;;;;;;;;13.00;99.90;;;;;;5020383;28;20008;-66
2023/05/05 05:59:41;;;;;;;;;;;13.10;99.90;;;;;;5022240;28;20379;-66
2023/05/05 06:02:06;;;;;;;;;;;13.10;99.90;;;;;;5018388;28;19971;-65
2023/05/05 06:04:32;;;;;;;;;;;13.10;99.90;;;;;;5021563;28;19925;-65
2023/05/05 06:06:57;;;;;;;;;;;13.10;99.90;;;;;;5018626;28;20392;-67
2023/05/05 06:09:24;;;;;;;;;;;13.00;99.90;;;;;;5018696;28;19928;-65
2023/05/05 06:11:49;;;;;;;;;;;13.00;99.90;;;;;;5022246;28;19951;-65
2023/05/05 06:14:15;;;;;;;;;;;13.00;99.90;;;;;;5019714;28;20789;-66
2023/05/05 06:16:41;;;;;;;;;;;13.10;99.90;;;;;;5013586;28;20916;-67
2023/05/05 06:19:08;;;;;;;;;;;13.10;99.90;;;;;;5017503;28;19925;-66
2023/05/05 06:21:34;;;;;;;;;;;13.30;99.90;;;;;;5004418;28;19925;-66
2023/05/05 06:24:00;;;;;;;;;;;13.40;99.90;;;;;;4997798;28;19972;-68
2023/05/05 06:26:25;;;;;;;;;;;13.40;99.90;;;;;;5024350;28;19987;-64
2023/05/05 06:28:50;;;;;;;;;;;13.50;99.90;;;;;;5020290;28;19921;-66
2023/05/05 06:31:16;;;;;;;;;;;13.50;99.90;;;;;;5018048;28;19921;-67
2023/05/05 06:33:41;;;;;;;;;;;13.60;99.90;;;;;;5026584;28;19925;-64
2023/05/05 06:36:07;;;;;;;;;;;13.70;99.90;;;;;;5032093;28;20016;-64
2023/05/05 06:38:33;;;;;;;;;;;13.80;99.90;;;;;;5026106;28;20385;-65
2023/05/05 06:40:58;;;;;;;;;;;13.80;99.90;;;;;;5024566;28;19964;-69
2023/05/05 06:43:24;;;;;;;;;;;13.90;99.90;;;;;;5030561;28;19921;-65
2023/05/05 06:45:49;;;;;;;;;;;13.90;99.90;;;;;;5032069;28;19929;-65
2023/05/05 06:48:15;;;;;;;;;;;14.00;99.90;;;;;;5031922;28;19928;-66
2023/05/05 06:50:41;;;;;;;;;;;14.10;99.90;;;;;;5015309;28;19947;-65
2023/05/05 06:53:06;;;;;;;;;;;14.20;99.90;;;;;;5029045;28;19921;-65
2023/05/05 06:55:32;;;;;;;;;;;14.20;99.90;;;;;;5032269;28;19927;-65
2023/05/05 06:57:57;;;;;;;;;;;14.30;99.90;;;;;;5025313;28;19928;-65
2023/05/05 07:00:23;;;;;;;;;;;14.30;99.90;;;;;;5013187;28;19921;-65
2023/05/05 07:02:48;;;;;;;;;;;14.40;99.90;;;;;;5031927;28;19999;-65
2023/05/05 07:05:14;;;;;;;;;;;14.40;99.90;;;;;;5031753;28;19925;-65
2023/05/05 07:07:50;;;;;;;;;;;14.50;99.90;;;;;;5010835;28;19954;-65
2023/05/05 07:10:15;;;;;;;;;;;14.60;99.90;;;;;;5031520;28;20438;-67
2023/05/05 07:12:41;;;;;;;;;;;14.70;99.90;;;;;;5031937;28;20004;-65
2023/05/05 07:15:06;;;;;;;;;;;14.80;99.90;;;;;;5018573;28;19929;-65
2023/05/05 07:17:32;;;;;;;;;;;14.90;99.90;;;;;;5020925;28;19960;-65
2023/05/05 07:19:57;;;;;;;;;;;14.90;99.90;;;;;;5013849;28;19940;-65
2023/05/05 07:22:23;;;;;;;;;;;15.00;99.90;;;;;;5029829;28;19921;-66
2023/05/05 07:24:48;;;;;;;;;;;15.00;99.90;;;;;;5017340;28;20403;-65
2023/05/05 07:27:14;;;;;;;;;;;15.00;99.90;;;;;;5029923;28;19928;-70
2023/05/05 07:29:39;;;;;;;;;;;15.00;99.90;;;;;;5031445;28;20292;-65
2023/05/05 07:32:05;;;;;;;;;;;15.00;99.90;;;;;;5024732;28;19967;-66
2023/05/05 07:34:33;;;;;;;;;;;15.00;99.90;;;;;;5024894;28;19921;-65
2023/05/05 07:36:58;;;;;;;;;;;15.10;99.90;;;;;;5031237;28;19928;-67
2023/05/05 07:39:24;;;;;;;;;;;15.20;99.90;;;;;;5031094;28;19921;-65
2023/05/05 07:41:50;;;;;;;;;;;15.20;99.90;;;;;;5001597;28;19933;-65
2023/05/05 07:44:15;;;;;;;;;;;15.30;99.90;;;;;;5029930;28;19978;-65
2023/05/05 07:46:41;;;;;;;;;;;15.40;99.90;;;;;;5030385;28;19921;-66
2023/05/05 07:49:06;;;;;;;;;;;15.50;99.90;;;;;;5024061;28;19975;-65
2023/05/05 07:51:32;;;;;;;;;;;15.50;99.90;;;;;;5031097;28;19921;-65
2023/05/05 07:53:57;;;;;;;;;;;15.60;99.90;;;;;;5021337;28;19921;-65
2023/05/05 07:56:23;;;;;;;;;;;15.60;99.90;;;;;;5019857;28;20379;-67
2023/05/05 07:58:48;;;;;;;;;;;15.70;99.90;;;;;;5013079;28;20439;-65
2023/05/05 08:01:14;;;;;;;;;;;15.80;99.90;;;;;;5010895;28;19921;-66
2023/05/05 08:03:40;;;;;;;;;;;15.90;99.90;;;;;;5018025;28;19936;-65
2023/05/05 08:06:09;;;;;;;;;;;15.90;99.90;;;;;;5019524;28;19925;-66
2023/05/05 08:08:35;;;;;;;;;;;16.00;99.90;;;;;;5033284;28;19926;-65
2023/05/05 08:11:01;;;;;;;;;;;16.10;99.90;;;;;;5036438;28;20350;-65
2023/05/05 08:13:28;;;;;;;;;;;16.20;99.90;;;;;;5013551;28;19964;-69
2023/05/05 08:15:54;;;;;;;;;;;16.30;99.90;;;;;;5024541;28;19921;-66
2023/05/05 08:18:20;;;;;;;;;;;16.40;99.90;;;;;;5016006;28;19983;-65
2023/05/05 08:20:46;;;;;;;;;;;16.50;99.90;;;;;;5029380;28;20015;-67
2023/05/05 08:23:11;;;;;;;;;;;16.60;99.90;;;;;;5021463;28;19961;-65
2023/05/05 08:25:37;;;;;;;;;;;16.80;99.90;;;;;;5029267;28;19925;-65
2023/05/05 08:28:02;;;;;;;;;;;16.80;99.90;;;;;;5033944;28;19968;-65
2023/05/05 08:30:28;;;;;;;;;;;17.00;99.90;;;;;;5004239;28;19921;-65
2023/05/05 08:32:54;;;;;;;;;;;17.10;99.90;;;;;;5029799;28;19936;-67
2023/05/05 08:35:19;;;;;;;;;;;17.20;99.90;;;;;;5031154;28;19921;-65
2023/05/05 08:37:45;;;;;;;;;;;17.20;99.90;;;;;;5024162;28;20402;-65
2023/05/05 08:40:13;;;;;;;;;;;17.30;99.90;;;;;;5013828;28;20402;-67
2023/05/05 08:42:39;;;;;;;;;;;17.40;99.90;;;;;;5033380;28;19929;-65
2023/05/05 08:45:06;;;;;;;;;;;17.50;99.90;;;;;;5024819;28;20379;-66
2023/05/05 08:47:31;;;;;;;;;;;17.60;99.90;;;;;;5028109;28;19925;-66
2023/05/05 08:49:58;;;;;;;;;;;17.50;99.90;;;;;;5033284;28;19929;-66
2023/05/05 08:52:26;;;;;;;;;;;17.60;99.90;;;;;;5033282;28;19921;-65
2023/05/05 08:54:54;;;;;;;;;;;17.60;99.90;;;;;;5014013;28;20015;-65
2023/05/05 08:57:26;;;;;;;;;;;17.70;99.90;;;;;;5022314;28;21878;-70
2023/05/05 08:59:52;;;;;;;;;;;18.00;99.90;;;;;;5029192;28;19925;-65
2023/05/05 09:02:22;;;;;;;;;;;17.90;99.90;;;;;;5031950;28;20019;-65
2023/05/05 09:04:49;;;;;;;;;;;18.10;99.90;;;;;;5028944;28;20295;-66
2023/05/05 09:07:14;;;;;;;;;;;18.20;99.90;;;;;;5008125;28;20300;-66
2023/05/05 09:09:40;;;;;;;;;;;18.20;99.90;;;;;;5031319;28;20390;-65
2023/05/05 09:12:05;;;;;;;;;;;18.30;99.90;;;;;;4998280;28;19925;-65
2023/05/05 09:14:30;;;;;;;;;;;18.30;99.90;;;;;;5024612;28;19921;-66
2023/05/05 09:16:56;;;;;;;;;;;18.40;99.90;;;;;;5029445;28;19921;-70
2023/05/05 09:19:21;;;;;;;;;;;18.40;99.90;;;;;;5024937;28;20024;-67
2023/05/05 09:21:48;;;;;;;;;;;18.40;99.90;;;;;;5022005;28;20552;-65
2023/05/05 09:24:14;;;;;;;;;;;18.40;99.90;;;;;;5030427;28;19932;-65
2023/05/05 09:26:41;;;;;;;;;;;18.60;99.90;;;;;;5015723;28;20025;-65
2023/05/05 09:29:07;;;;;;;;;;;18.70;99.90;;;;;;5018674;28;19922;-65
2023/05/05 09:31:33;;;;;;;;;;;18.80;99.90;;;;;;5033524;28;20353;-65
2023/05/05 09:33:59;;;;;;;;;;;18.80;99.90;;;;;;5033844;28;19921;-65
2023/05/05 09:36:46;;;;;;;;;;;18.90;99.90;;;;;;5024565;28;19960;-64
2023/05/05 09:39:12;;;;;;;;;;;19.00;99.90;;;;;;5025983;28;19921;-65
2023/05/05 09:41:39;;;;;;;;;;;19.20;99.90;;;;;;5026520;28;20390;-65
2023/05/05 09:44:05;;;;;;;;;;;19.30;99.90;;;;;;5018595;28;19929;-66
2023/05/05 09:46:30;;;;;;;;;;;19.50;99.90;;;;;;5028951;28;19931;-64
2023/05/05 09:49:09;;;;;;;;;;;19.80;99.90;;;;;;5031025;28;19921;-65
2023/05/05 09:51:35;;;;;;;;;;;19.90;99.90;;;;;;5011797;28;20024;-66
2023/05/05 09:54:00;;;;;;;;;;;20.00;99.90;;;;;;5013223;28;20006;-70
2023/05/05 09:56:35;;;;;;;;;;;19.90;99.90;;;;;;5012019;28;20010;-67
2023/05/05 09:59:10;;;;;;;;;;;19.90;99.90;;;;;;5028633;28;19921;-67
2023/05/05 10:01:36;;;;;;;;;;;20.00;99.90;;;;;;5018344;28;20020;-65
2023/05/05 10:04:02;;;;;;;;;;;20.00;99.90;;;;;;5011053;28;20546;-65
2023/05/05 10:06:42;;;;;;;;;;;20.20;99.90;;;;;;5020489;28;20020;-66
2023/05/05 10:09:07;;;;;;;;;;;20.30;99.90;;;;;;5017598;28;19948;-66
2023/05/05 10:11:33;;;;;;;;;;;20.60;99.90;;;;;;5026225;28;19953;-66
2023/05/05 10:13:59;;;;;;;;;;;20.70;99.90;;;;;;5023729;28;19928;-65
2023/05/05 10:16:25;;;;;;;;;;;20.80;99.90;;;;;;5031397;28;19944;-66
2023/05/05 10:18:51;;;;;;;;;;;21.00;99.90;;;;;;5018472;28;19929;-67
2023/05/05 10:21:18;;;;;;;;;;;20.90;99.90;;;;;;5025187;28;20066;-65
2023/05/05 10:23:48;;;;;;;;;;;20.70;99.90;;;;;;5025972;28;19963;-66
2023/05/05 10:26:14;;;;;;;;;;;20.60;99.90;;;;;;5020102;28;20013;-66
2023/05/05 10:28:54;;;;;;;;;;;20.70;99.90;;;;;;5029627;28;19929;-65
2023/05/05 10:31:23;;;;;;;;;;;21.00;99.90;;;;;;5047019;28;19960;-65
2023/05/05 10:34:01;;;;;;;;;;;21.10;99.90;;;;;;5010975;28;19964;-64
2023/05/05 10:36:27;;;;;;;;;;;21.00;99.90;;;;;;5010984;28;19925;-66
2023/05/05 10:38:54;;;;;;;;;;;20.80;99.90;;;;;;5016769;28;19925;-66
2023/05/05 10:41:20;;;;;;;;;;;20.90;99.90;;;;;;5016067;28;20628;-65
2023/05/05 10:43:46;;;;;;;;;;;21.00;99.90;;;;;;5017096;28;20019;-66
2023/05/05 10:46:11;;;;;;;;;;;21.00;99.90;;;;;;5026691;28;20007;-66
2023/05/05 10:48:45;;;;;;;;;;;20.90;99.90;;;;;;5031250;28;19921;-66
2023/05/05 10:51:18;;;;;;;;;;;20.90;99.90;;;;;;5026704;28;19921;-66
2023/05/05 10:53:51;;;;;;;;;;;21.00;99.90;;;;;;5027238;28;19967;-66
2023/05/05 10:56:29;;;;;;;;;;;21.20;99.90;;;;;;5031111;28;19928;-66
2023/05/05 10:58:54;;;;;;;;;;;21.10;99.90;;;;;;5025050;28;19925;-66
2023/05/05 11:01:32;;;;;;;;;;;21.10;99.90;;;;;;5074248;22;20424;-68
2023/05/05 11:04:16;;;;;;;;;;;21.30;99.90;;;;;;5068381;28;19925;-68
2023/05/05 11:07:00;;;;;;;;;;;21.30;99.90;;;;;;5072015;28;19927;-68
2023/05/05 11:09:27;;;;;;;;;;;21.50;99.90;;;;;;5050983;28;19928;-68
2023/05/05 11:12:05;;;;;;;;;;;21.70;99.80;;;;;;5048144;28;19967;-68
2023/05/05 11:14:30;;;;;;;;;;;21.60;99.10;;;;;;5031996;28;19941;-68
2023/05/05 11:16:56;;;;;;;;;;;21.40;99.70;;;;;;5033393;28;20401;-67
2023/05/05 11:19:40;;;;;;;;;;;21.30;99.90;;;;;;5037755;28;19921;-68
2023/05/05 11:22:05;;;;;;;;;;;21.20;99.80;;;;;;5036810;28;19927;-67
2023/05/05 11:24:32;;;;;;;;;;;21.10;99.90;;;;;;5037811;28;20012;-68
2023/05/05 11:26:57;;;;;;;;;;;21.10;99.70;;;;;;5037748;28;20326;-67
2023/05/05 11:29:23;;;;;;;;;;;21.20;99.50;;;;;;5037878;28;20371;-68
2023/05/05 11:32:07;;;;;;;;;;;21.30;99.30;;;;;;5046565;28;19921;-68
2023/05/05 11:34:33;;;;;;;;;;;21.40;99.20;;;;;;5035410;28;20019;-68
2023/05/05 11:37:04;;;;;;;;;;;21.30;99.50;;;;;;5051424;28;20007;-68
2023/05/05 11:39:52;;;;;;;;;;;21.30;99.10;;;;;;5045434;28;20000;-68
2023/05/05 11:42:27;;;;;;;;;;;21.30;99.90;;;;;;5040604;28;19957;-68
2023/05/05 11:44:53;;;;;;;;;;;21.20;99.70;;;;;;5016944;28;20027;-68
2023/05/05 11:47:18;;;;;;;;;;;21.10;99.90;;;;;;5044628;28;20438;-66
2023/05/05 11:49:43;;;;;;;;;;;20.90;99.90;;;;;;5044371;28;19922;-68
2023/05/05 11:52:13;;;;;;;;;;;20.80;99.90;;;;;;5031498;28;19970;-67
2023/05/05 11:54:40;;;;;;;;;;;20.70;99.90;;;;;;5040080;28;19921;-68
2023/05/05 11:57:07;;;;;;;;;;;20.60;99.90;;;;;;5033374;28;19921;-67
2023/05/05 11:59:37;;;;;;;;;;;20.60;99.90;;;;;;5006849;28;19928;-68
2023/05/05 12:02:03;;;;;;;;;;;20.60;99.90;;;;;;5050923;28;19921;-68
2023/05/05 12:04:28;;;;;;;;;;;20.70;99.90;;;;;;5054774;28;19935;-68
2023/05/05 12:06:54;;;;;;;;;;;20.70;99.90;;;;;;5055010;28;20386;-68
2023/05/05 12:09:21;;;;;;;;;;;20.60;99.90;;;;;;5027937;28;19951;-67
2023/05/05 12:11:47;;;;;;;;;;;20.50;99.90;;;;;;5049351;28;19955;-68
2023/05/05 12:14:12;;;;;;;;;;;20.40;99.90;;;;;;5043197;28;19975;-68
2023/05/05 12:16:38;;;;;;;;;;;20.30;99.90;;;;;;5036040;28;20345;-67
2023/05/05 12:19:07;;;;;;;;;;;20.20;99.90;;;;;;5040789;28;19921;-67
2023/05/05 12:21:33;;;;;;;;;;;20.10;99.90;;;;;;5042015;28;19921;-68
2023/05/05 12:23:59;;;;;;;;;;;20.00;99.90;;;;;;5054385;28;20309;-68
2023/05/05 12:26:28;;;;;;;;;;;19.90;99.90;;;;;;5034967;28;19983;-68
2023/05/05 12:28:54;;;;;;;;;;;19.80;99.90;;;;;;5041992;28;19925;-67
2023/05/05 12:31:20;;;;;;;;;;;19.70;99.90;;;;;;5024733;28;20276;-66
2023/05/05 12:33:46;;;;;;;;;;;19.60;99.90;;;;;;5038530;28;19927;-68
2023/05/05 12:36:12;;;;;;;;;;;19.60;99.90;;;;;;5052001;28;19921;-68
2023/05/05 12:38:37;;;;;;;;;;;19.50;99.90;;;;;;5043944;28;19921;-68
2023/05/05 12:41:03;;;;;;;;;;;19.50;99.90;;;;;;5053911;28;20051;-68
2023/05/05 12:43:32;;;;;;;;;;;19.40;99.90;;;;;;5054924;28;19921;-68
2023/05/05 12:46:04;;;;;;;;;;;19.40;99.90;;;;;;5046809;28;19924;-66
2023/05/05 12:48:30;;;;;;;;;;;19.40;99.90;;;;;;5014475;28;19921;-69
2023/05/05 12:51:15;;;;;;;;;;;19.20;99.90;;;;;;5039642;28;20314;-69
2023/05/05 12:53:41;;;;;;;;;;;18.50;99.90;;;;;;5029976;28;19967;-69
2023/05/05 12:56:26;;;;;;;;;;;17.00;99.90;;;;;;5029550;28;19979;-69
2023/05/05 12:58:54;;;;;;;;;;;16.00;99.90;;;;;;5030312;28;19927;-69
2023/05/05 13:01:19;;;;;;;;;;;15.00;99.90;;;;;;5020516;28;19930;-68
2023/05/05 13:03:45;;;;;;;;;;;14.60;99.90;;;;;;5051915;28;20345;-67
2023/05/05 13:06:20;;;;;;;;;;;14.30;99.90;;;;;;5035481;28;19925;-70
2023/05/05 13:08:46;;;;;;;;;;;14.00;99.90;;;;;;5029186;28;22367;-69
2023/05/05 13:11:11;;;;;;;;;;;13.70;99.90;;;;;;5044608;28;19922;-68
2023/05/05 13:13:37;;;;;;;;;;;13.50;99.90;;;;;;5053256;28;20414;-68
2023/05/05 13:16:03;;;;;;;;;;;13.40;99.90;;;;;;5037481;28;19921;-68
2023/05/05 13:18:29;;;;;;;;;;;13.40;99.90;;;;;;5048424;28;19925;-68
2023/05/05 13:20:54;;;;;;;;;;;13.30;99.90;;;;;;5026836;28;19921;-67
2023/05/05 13:23:20;;;;;;;;;;;13.30;99.90;;;;;;5028283;28;19925;-68
2023/05/05 13:25:46;;;;;;;;;;;13.30;99.90;;;;;;5044064;28;20015;-68
2023/05/05 13:28:11;;;;;;;;;;;13.40;99.90;;;;;;5037289;28;19986;-68
2023/05/05 13:30:37;;;;;;;;;;;13.50;99.90;;;;;;5046176;28;19920;-68
2023/05/05 13:33:02;;;;;;;;;;;13.50;99.90;;;;;;5044696;28;20766;-68
2023/05/05 13:35:28;;;;;;;;;;;13.50;99.90;;;;;;5049612;28;19928;-68
2023/05/05 13:37:54;;;;;;;;;;;13.40;99.90;;;;;;5037983;28;19925;-69
2023/05/05 13:40:20;;;;;;;;;;;13.40;99.90;;;;;;5024989;28;19928;-69
2023/05/05 13:42:45;;;;;;;;;;;13.30;99.90;;;;;;5041745;28;19921;-68
2023/05/05 13:45:11;;;;;;;;;;;13.30;99.90;;;;;;5022844;28;19929;-68
2023/05/05 13:47:36;;;;;;;;;;;13.20;99.90;;;;;;5035058;28;19924;-68
2023/05/05 13:50:02;;;;;;;;;;;13.20;99.90;;;;;;5030292;28;19929;-68
2023/05/05 13:52:27;;;;;;;;;;;13.20;99.90;;;;;;5050648;28;20208;-68
2023/05/05 13:54:53;;;;;;;;;;;13.10;99.90;;;;;;5047946;28;19935;-68
2023/05/05 13:57:18;;;;;;;;;;;13.10;99.90;;;;;;5043865;28;19956;-68
2023/05/05 13:59:44;;;;;;;;;;;13.20;99.90;;;;;;5046300;28;19925;-68
2023/05/05 14:02:09;;;;;;;;;;;13.20;99.90;;;;;;5032689;28;19972;-68
2023/05/05 14:04:37;;;;;;;;;;;13.20;99.90;;;;;;5029669;28;21496;-67
2023/05/05 14:07:03;;;;;;;;;;;13.20;99.90;;;;;;5046010;28;19921;-68
2023/05/05 14:09:29;;;;;;;;;;;13.20;99.90;;;;;;5040418;28;20299;-67
2023/05/05 14:11:54;;;;;;;;;;;13.20;99.90;;;;;;5012940;28;19927;-68
2023/05/05 14:14:20;;;;;;;;;;;13.10;99.90;;;;;;5042670;28;19921;-68
2023/05/05 14:16:45;;;;;;;;;;;13.10;99.90;;;;;;5021404;28;20020;-68